sensor_id;sensor_type;location;lat;lon;timestamp;temperature;humidity
26049;DHT22;13822;51.568;5.086;2022-08-25T00:02:43;23.80;99.90
26049;DHT22;13822;51.568;5.086;2022-08-25T00:08:04;23.80;99.90
26049;DHT22;13822;51.568;5.086;2022-08-25T00:13:27;23.70;99.90
26049;DHT22;13822;51.568;5.086;2022-08-25T00:19:16;23.60;99.90
26049;DHT22;13822;51.568;5.086;2022-08-25T00:24:48;23.60;99.90
26049;DHT22;13822;51.568;5.086;2022-08-25T00:30:15;23.50;99.90
26049;DHT22;13822;51.568;5.086;2022-08-25T04:56:59;21.40;99.90
26049;DHT22;13822;51.568;5.086;2022-08-25T05:02:01;21.40;99.90
26049;DHT22;13822;51.568;5.086;2022-08-25T05:07:06;21.40;99.90
26049;DHT22;13822;51.568;5.086;2022-08-25T05:12:08;21.30;99.90
26049;DHT22;13822;51.568;5.086;2022-08-25T05:17:13;21.30;99.90
26049;DHT22;13822;51.568;5.086;2022-08-25T05:22:15;21.30;99.90
26049;DHT22;13822;51.568;5.086;2022-08-25T05:27:17;21.30;99.90
26049;DHT22;13822;51.568;5.086;2022-08-25T05:32:19;21.20;99.90
26049;DHT22;13822;51.568;5.086;2022-08-25T05:37:21;21.20;99.90
26049;DHT22;13822;51.568;5.086;2022-08-25T05:42:24;21.20;99.90
26049;DHT22;13822;51.568;5.086;2022-08-25T05:47:26;21.20;99.90
26049;DHT22;13822;51.568;5.086;2022-08-25T05:52:30;21.10;99.90
26049;DHT22;13822;51.568;5.086;2022-08-25T05:57:39;21.20;99.90
26049;DHT22;13822;51.568;5.086;2022-08-25T06:02:42;21.20;99.90
26049;DHT22;13822;51.568;5.086;2022-08-25T06:07:51;21.30;99.90
26049;DHT22;13822;51.568;5.086;2022-08-25T06:12:59;21.30;99.90
26049;DHT22;13822;51.568;5.086;2022-08-25T06:18:02;21.40;99.90
26049;DHT22;13822;51.568;5.086;2022-08-25T06:23:05;21.50;99.90
26049;DHT22;13822;51.568;5.086;2022-08-25T06:28:07;21.60;99.90
26049;DHT22;13822;51.568;5.086;2022-08-25T06:33:09;21.70;99.90
26049;DHT22;13822;51.568;5.086;2022-08-25T06:38:12;21.80;99.90
26049;DHT22;13822;51.568;5.086;2022-08-25T06:43:14;21.90;99.90
26049;DHT22;13822;51.568;5.086;2022-08-25T06:48:16;22.00;99.90
26049;DHT22;13822;51.568;5.086;2022-08-25T06:53:18;22.10;99.90
26049;DHT22;13822;51.568;5.086;2022-08-25T06:58:20;22.30;99.90
26049;DHT22;13822;51.568;5.086;2022-08-25T07:03:22;22.40;99.90
26049;DHT22;13822;51.568;5.086;2022-08-25T07:08:30;22.50;99.90
26049;DHT22;13822;51.568;5.086;2022-08-25T07:13:32;22.70;99.90
26049;DHT22;13822;51.568;5.086;2022-08-25T07:18:35;22.70;99.90
26049;DHT22;13822;51.568;5.086;2022-08-25T07:23:37;22.80;99.90
26049;DHT22;13822;51.568;5.086;2022-08-25T07:28:40;22.90;99.90
26049;DHT22;13822;51.568;5.086;2022-08-25T07:33:48;23.00;99.90
26049;DHT22;13822;51.568;5.086;2022-08-25T07:39:10;23.20;99.90
26049;DHT22;13822;51.568;5.086;2022-08-25T07:44:12;23.40;99.90
26049;DHT22;13822;51.568;5.086;2022-08-25T07:49:14;23.60;99.90
26049;DHT22;13822;51.568;5.086;2022-08-25T07:54:17;23.90;99.90
26049;DHT22;13822;51.568;5.086;2022-08-25T07:59:19;24.10;99.90
26049;DHT22;13822;51.568;5.086;2022-08-25T08:04:21;24.30;99.90
26049;DHT22;13822;51.568;5.086;2022-08-25T08:09:23;24.50;99.90
26049;DHT22;13822;51.568;5.086;2022-08-25T08:14:25;24.60;99.90
26049;DHT22;13822;51.568;5.086;2022-08-25T08:19:27;24.70;99.90
26049;DHT22;13822;51.568;5.086;2022-08-25T08:24:29;24.90;99.90
26049;DHT22;13822;51.568;5.086;2022-08-25T08:29:52;25.00;99.90
26049;DHT22;13822;51.568;5.086;2022-08-25T08:34:54;25.10;99.90
26049;DHT22;13822;51.568;5.086;2022-08-25T08:39:57;25.40;99.90
26049;DHT22;13822;51.568;5.086;2022-08-25T08:55:47;26.10;99.90
26049;DHT22;13822;51.568;5.086;2022-08-25T09:00:56;26.30;99.90
26049;DHT22;13822;51.568;5.086;2022-08-25T09:06:11;26.40;99.90
26049;DHT22;13822;51.568;5.086;2022-08-25T09:17:01;26.70;99.90
26049;DHT22;13822;51.568;5.086;2022-08-25T09:28:14;27.30;91.80
26049;DHT22;13822;51.568;5.086;2022-08-25T09:33:23;27.60;75.30
26049;DHT22;13822;51.568;5.086;2022-08-25T09:38:27;27.90;94.70
26049;DHT22;13822;51.568;5.086;2022-08-25T09:43:32;28.10;94.10
26049;DHT22;13822;51.568;5.086;2022-08-25T09:48:46;28.40;87.40
26049;DHT22;13822;51.568;5.086;2022-08-25T09:59:22;28.80;84.00
26049;DHT22;13822;51.568;5.086;2022-08-25T10:04:37;29.10;81.50
26049;DHT22;13822;51.568;5.086;2022-08-25T10:09:42;29.20;77.60
26049;DHT22;13822;51.568;5.086;2022-08-25T10:14:44;29.30;73.00
26049;DHT22;13822;51.568;5.086;2022-08-25T10:19:48;29.40;73.50
26049;DHT22;13822;51.568;5.086;2022-08-25T10:24:56;29.50;73.90
26049;DHT22;13822;51.568;5.086;2022-08-25T10:31:01;29.60;66.10
26049;DHT22;13822;51.568;5.086;2022-08-25T10:36:10;29.70;64.90
26049;DHT22;13822;51.568;5.086;2022-08-25T10:56:52;31.00;57.40
26049;DHT22;13822;51.568;5.086;2022-08-25T11:07:41;31.80;51.90
26049;DHT22;13822;51.568;5.086;2022-08-25T11:12:53;32.30;55.20
26049;DHT22;13822;51.568;5.086;2022-08-25T11:18:03;32.60;52.80
26049;DHT22;13822;51.568;5.086;2022-08-25T11:23:29;32.90;48.00
26049;DHT22;13822;51.568;5.086;2022-08-25T11:28:53;33.30;47.80
26049;DHT22;13822;51.568;5.086;2022-08-25T11:34:08;33.60;42.10
26049;DHT22;13822;51.568;5.086;2022-08-25T11:39:56;33.80;43.00
26049;DHT22;13822;51.568;5.086;2022-08-25T11:50:36;34.00;40.40
26049;DHT22;13822;51.568;5.086;2022-08-25T11:56:29;34.20;38.90
26049;DHT22;13822;51.568;5.086;2022-08-25T12:12:35;34.90;34.00
26049;DHT22;13822;51.568;5.086;2022-08-25T12:17:40;35.20;37.20
26049;DHT22;13822;51.568;5.086;2022-08-25T12:22:53;35.20;37.20
26049;DHT22;13822;51.568;5.086;2022-08-25T12:38:45;35.10;32.50
26049;DHT22;13822;51.568;5.086;2022-08-25T12:44:30;34.90;34.30
26049;DHT22;13822;51.568;5.086;2022-08-25T12:49:34;35.10;35.60
26049;DHT22;13822;51.568;5.086;2022-08-25T12:55:03;35.40;34.40
26049;DHT22;13822;51.568;5.086;2022-08-25T13:00:20;35.60;33.70
26049;DHT22;13822;51.568;5.086;2022-08-25T13:11:23;35.70;33.30
26049;DHT22;13822;51.568;5.086;2022-08-25T13:16:28;36.00;34.40
26049;DHT22;13822;51.568;5.086;2022-08-25T13:21:40;36.20;33.70
26049;DHT22;13822;51.568;5.086;2022-08-25T13:26:43;36.40;32.00
26049;DHT22;13822;51.568;5.086;2022-08-25T13:31:58;36.60;33.70
26049;DHT22;13822;51.568;5.086;2022-08-25T13:37:10;36.50;31.30
26049;DHT22;13822;51.568;5.086;2022-08-25T13:42:31;36.30;31.80
26049;DHT22;13822;51.568;5.086;2022-08-25T13:47:40;36.30;32.80
26049;DHT22;13822;51.568;5.086;2022-08-25T13:53:11;36.50;31.60
26049;DHT22;13822;51.568;5.086;2022-08-25T13:58:25;36.70;31.10
26049;DHT22;13822;51.568;5.086;2022-08-25T14:03:46;36.80;31.30
26049;DHT22;13822;51.568;5.086;2022-08-25T14:14:04;36.50;30.40
26049;DHT22;13822;51.568;5.086;2022-08-25T14:19:14;36.20;29.60
26049;DHT22;13822;51.568;5.086;2022-08-25T14:24:22;36.20;29.90
26049;DHT22;13822;51.568;5.086;2022-08-25T14:29:24;36.30;30.00
26049;DHT22;13822;51.568;5.086;2022-08-25T14:34:33;36.40;30.20
26049;DHT22;13822;51.568;5.086;2022-08-25T14:39:43;36.40;30.00
26049;DHT22;13822;51.568;5.086;2022-08-25T14:44:45;36.50;30.70
26049;DHT22;13822;51.568;5.086;2022-08-25T14:49:47;36.10;29.60
26049;DHT22;13822;51.568;5.086;2022-08-25T14:54:50;35.90;29.80
26049;DHT22;13822;51.568;5.086;2022-08-25T14:59:53;35.90;30.10
26049;DHT22;13822;51.568;5.086;2022-08-25T15:04:58;35.90;30.70
26049;DHT22;13822;51.568;5.086;2022-08-25T15:10:02;35.90;30.00
26049;DHT22;13822;51.568;5.086;2022-08-25T15:15:05;36.00;30.00
26049;DHT22;13822;51.568;5.086;2022-08-25T15:20:08;36.00;29.40
26049;DHT22;13822;51.568;5.086;2022-08-25T15:25:11;35.90;30.00
26049;DHT22;13822;51.568;5.086;2022-08-25T15:30:14;35.80;30.20
26049;DHT22;13822;51.568;5.086;2022-08-25T15:35:16;35.70;29.80
26049;DHT22;13822;51.568;5.086;2022-08-25T15:40:18;35.40;29.70
26049;DHT22;13822;51.568;5.086;2022-08-25T15:45:21;35.10;29.80
26049;DHT22;13822;51.568;5.086;2022-08-25T15:50:24;34.90;30.00
26049;DHT22;13822;51.568;5.086;2022-08-25T15:55:27;34.60;30.30
26049;DHT22;13822;51.568;5.086;2022-08-25T16:00:29;34.40;30.00
26049;DHT22;13822;51.568;5.086;2022-08-25T16:05:37;34.20;30.30
26049;DHT22;13822;51.568;5.086;2022-08-25T16:10:49;34.10;31.20
26049;DHT22;13822;51.568;5.086;2022-08-25T16:15:52;33.90;31.30
26049;DHT22;13822;51.568;5.086;2022-08-25T16:20:55;33.70;32.40
26049;DHT22;13822;51.568;5.086;2022-08-25T16:25:58;33.60;32.50
26049;DHT22;13822;51.568;5.086;2022-08-25T16:31:01;33.50;31.90
26049;DHT22;13822;51.568;5.086;2022-08-25T16:36:09;33.20;31.60
26049;DHT22;13822;51.568;5.086;2022-08-25T16:41:16;33.00;31.80
26049;DHT22;13822;51.568;5.086;2022-08-25T16:46:20;32.90;31.90
26049;DHT22;13822;51.568;5.086;2022-08-25T16:51:24;32.60;31.80
26049;DHT22;13822;51.568;5.086;2022-08-25T16:56:32;32.50;32.10
26049;DHT22;13822;51.568;5.086;2022-08-25T17:01:38;32.50;32.60
26049;DHT22;13822;51.568;5.086;2022-08-25T17:06:43;32.40;36.10
26049;DHT22;13822;51.568;5.086;2022-08-25T17:11:52;32.20;39.30
26049;DHT22;13822;51.568;5.086;2022-08-25T17:16:57;31.90;44.10
26049;DHT22;13822;51.568;5.086;2022-08-25T17:22:02;31.50;52.40
26049;DHT22;13822;51.568;5.086;2022-08-25T17:27:07;31.10;58.70
26049;DHT22;13822;51.568;5.086;2022-08-25T17:32:10;30.80;63.60
26049;DHT22;13822;51.568;5.086;2022-08-25T17:37:14;30.50;67.10
26049;DHT22;13822;51.568;5.086;2022-08-25T17:42:17;30.20;73.70
26049;DHT22;13822;51.568;5.086;2022-08-25T17:47:21;30.00;76.90
26049;DHT22;13822;51.568;5.086;2022-08-25T17:52:23;29.60;81.90
26049;DHT22;13822;51.568;5.086;2022-08-25T17:57:26;29.40;88.00
26049;DHT22;13822;51.568;5.086;2022-08-25T18:02:28;29.10;89.80
26049;DHT22;13822;51.568;5.086;2022-08-25T18:07:31;28.80;95.30
26049;DHT22;13822;51.568;5.086;2022-08-25T18:12:34;28.60;96.00
26049;DHT22;13822;51.568;5.086;2022-08-25T18:17:37;28.50;98.00
26049;DHT22;13822;51.568;5.086;2022-08-25T18:22:40;28.30;99.90
26049;DHT22;13822;51.568;5.086;2022-08-25T18:27:44;28.10;99.90
26049;DHT22;13822;51.568;5.086;2022-08-25T18:32:47;28.00;99.90
26049;DHT22;13822;51.568;5.086;2022-08-25T18:37:49;27.70;99.90
26049;DHT22;13822;51.568;5.086;2022-08-25T18:43:11;27.50;99.90
26049;DHT22;13822;51.568;5.086;2022-08-25T18:48:16;27.30;99.90
26049;DHT22;13822;51.568;5.086;2022-08-25T18:53:22;27.20;99.90
26049;DHT22;13822;51.568;5.086;2022-08-25T18:58:38;27.10;99.90
26049;DHT22;13822;51.568;5.086;2022-08-25T19:03:42;26.90;99.90
26049;DHT22;13822;51.568;5.086;2022-08-25T19:08:45;26.70;99.90
26049;DHT22;13822;51.568;5.086;2022-08-25T19:13:48;26.60;99.90
26049;DHT22;13822;51.568;5.086;2022-08-25T19:18:51;26.20;99.90
26049;DHT22;13822;51.568;5.086;2022-08-25T19:23:53;25.80;99.90
26049;DHT22;13822;51.568;5.086;2022-08-25T19:28:55;25.40;99.90
26049;DHT22;13822;51.568;5.086;2022-08-25T19:33:57;25.30;99.90
26049;DHT22;13822;51.568;5.086;2022-08-25T19:39:00;25.20;99.90
26049;DHT22;13822;51.568;5.086;2022-08-25T19:44:03;25.00;99.90
26049;DHT22;13822;51.568;5.086;2022-08-25T19:49:17;24.80;99.90
26049;DHT22;13822;51.568;5.086;2022-08-25T19:54:26;24.60;99.90
26049;DHT22;13822;51.568;5.086;2022-08-25T19:59:45;24.50;99.90
26049;DHT22;13822;51.568;5.086;2022-08-25T20:04:52;24.30;99.90
26049;DHT22;13822;51.568;5.086;2022-08-25T20:09:57;24.10;99.90
26049;DHT22;13822;51.568;5.086;2022-08-25T20:15:00;23.90;99.90
26049;DHT22;13822;51.568;5.086;2022-08-25T20:20:06;23.80;99.90
26049;DHT22;13822;51.568;5.086;2022-08-25T20:25:18;23.60;99.90
26049;DHT22;13822;51.568;5.086;2022-08-25T20:30:26;23.50;99.90
26049;DHT22;13822;51.568;5.086;2022-08-25T20:35:30;23.30;99.90
26049;DHT22;13822;51.568;5.086;2022-08-25T21:50:50;21.90;99.90
26049;DHT22;13822;51.568;5.086;2022-08-25T22:09:44;21.70;99.90
26049;DHT22;13822;51.568;5.086;2022-08-25T22:22:59;21.50;99.90
26049;DHT22;13822;51.568;5.086;2022-08-25T22:47:53;21.40;99.90
26049;DHT22;13822;51.568;5.086;2022-08-25T22:54:14;21.40;99.90
26049;DHT22;13822;51.568;5.086;2022-08-25T23:07:19;21.30;99.90
26049;DHT22;13822;51.568;5.086;2022-08-25T23:13:09;21.30;99.90
26049;DHT22;13822;51.568;5.086;2022-08-25T23:18:31;21.20;99.90
26049;DHT22;13822;51.568;5.086;2022-08-25T23:43:56;21.20;99.90
26049;DHT22;13822;51.568;5.086;2022-08-25T23:50:44;21.10;99.90
26049;DHT22;13822;51.568;5.086;2022-08-25T23:57:13;21.20;99.90
